Prevelis — SYDL — position and weather

sailwx.info

Track history (hours):
 
Tides and Currents Weather Stations Pressure Air Temp Water Temp Dewpoint Dewpoint Depression Visibility Wind Speed Wind Dir Waves Ship Positions

Prevelis

Last reported at 2014-Oct-31 09:34 UTC. Time now 2014-Oct-31 10:33 UTC.
Position N 37°57' E 023°38'.

Length 143 m; draft 5.5 m.

Type: Passenger vessel. MMSI: 239297000.

Date/timePositionNaut miles runAvg speedWind from/ knotsBaromVisibWave heightAir tempDewpointWater temp
2014-Oct-31 09:34N 37°57' E 023°38'0 0.0
2014-Oct-31 08:33N 37°57' E 023°38'0 0.0
2014-Oct-31 07:33N 37°57' E 023°38'0 0.0
2014-Oct-31 06:33N 37°57' E 023°38'0 0.0
2014-Oct-31 05:34N 37°57' E 023°38'0 0.0
2014-Oct-31 04:34N 37°57' E 023°38'8 7.7
2014-Oct-31 03:33N 37°49' E 023°41'5317.4
2014-Oct-31 00:32N 37°02' E 024°09'1817.9
2014-Oct-30 23:33N 36°47' E 024°22'3 2.6
2014-Oct-30 22:34N 36°45' E 024°24'1615.6
2014-Oct-30 21:33N 36°41' E 024°42'1817.8
2014-Oct-30 20:34N 36°32' E 025°01'1817.7
2014-Oct-30 19:34N 36°22' E 025°20'1 1.2
2014-Oct-30 18:34N 36°22' E 025°21'1514.6
2014-Oct-30 17:33N 36°20' E 025°40'1212.1
2014-Oct-30 16:33N 36°13' E 025°52'1817.7
2014-Oct-30 15:33N 36°01' E 026°08'  
2014-Oct-28 07:31N 36°05' E 026°03'1818.2
2014-Oct-28 06:33N 36°18' E 025°47'1111.4
2014-Oct-28 05:34N 36°20' E 025°33'7 7.1
2014-Oct-28 04:33N 36°23' E 025°26'8 8.3
2014-Oct-28 03:34N 36°23' E 025°15'1817.8
2014-Oct-28 02:33N 36°33' E 024°56'1818.0
2014-Oct-28 01:33N 36°43' E 024°38'9 9.1
2014-Oct-28 00:33N 36°43' E 024°26'6 5.6
2014-Oct-27 23:33N 36°47' E 024°22'1818.1
2014-Oct-27 22:33N 37°03' E 024°11'3818.1
2014-Oct-27 20:28N 37°35' E 023°46'1617.9
2014-Oct-27 19:34N 37°50' E 023°37'7 6.9
2014-Oct-27 18:33N 37°57' E 023°38'0 0.0
2014-Oct-27 17:33N 37°57' E 023°38'0 0.0
2014-Oct-27 16:33N 37°57' E 023°38'0 0.0
2014-Oct-27 15:33N 37°57' E 023°38'0 0.0
2014-Oct-27 14:33N 37°57' E 023°38'0 0.0
2014-Oct-27 13:33N 37°57' E 023°38'0 0.0
2014-Oct-27 12:33N 37°57' E 023°38'0 0.0
2014-Oct-27 11:33N 37°57' E 023°38'0 0.0
2014-Oct-27 10:33N 37°57' E 023°38'0 0.0
2014-Oct-27 09:33N 37°57' E 023°38'0 0.0
2014-Oct-27 08:33N 37°57' E 023°38'3 3.0
2014-Oct-27 07:34N 37°54' E 023°38'5617.3
2014-Oct-27 04:19N 37°04' E 024°10'1316.8
2014-Oct-27 03:33N 36°53' E 024°18'1212.0
2014-Oct-27 02:33N 36°43' E 024°27'7 6.7
2014-Oct-27 01:33N 36°44' E 024°35'1717.4
2014-Oct-27 00:33N 36°35' E 024°53'1817.6
2014-Oct-26 23:33N 36°26' E 025°12'1111.3
2014-Oct-26 22:33N 36°23' E 025°26'4 4.4
2014-Oct-26 21:33N 36°19' E 025°24'1717.0
2014-Oct-26 20:33N 36°20' E 025°45'1010.0
2014-Oct-26 19:33N 36°12' E 025°39'1716.9
2014-Oct-26 18:33N 35°56' E 025°31'1717.2
2014-Oct-26 17:33N 35°40' E 025°23'1817.8
2014-Oct-26 16:32N 35°24' E 025°14'11 0.3
2014-Oct-25 09:18N 35°34' E 025°15'1316.7
2014-Oct-25 08:31N 35°45' E 025°24'1616.4
2014-Oct-25 07:33N 35°59' E 025°34'1716.7
2014-Oct-25 06:33N 36°14' E 025°42'6 6.4
2014-Oct-25 05:33N 36°20' E 025°41'1717.2
2014-Oct-25 04:34N 36°21' E 025°20'5 5.2
2014-Oct-25 03:33N 36°23' E 025°26'0 0.0
2014-Oct-25 02:33N 36°23' E 025°26'0 0.5
2014-Oct-25 01:34N 36°23' E 025°25'1716.5
2014-Oct-25 00:34N 36°27' E 025°05'1817.6
2014-Oct-24 23:33N 36°37' E 024°47'1817.5
2014-Oct-24 22:33N 36°47' E 024°29'4 4.2
2014-Oct-24 21:33N 36°43' E 024°27'1312.7
2014-Oct-24 20:34N 36°55' E 024°19'1615.9
2014-Oct-24 19:33N 37°10' E 024°18'1514.4
2014-Oct-24 18:30N 37°24' E 024°08'2116.9
2014-Oct-24 17:16N 37°36' E 023°47'1115.7
2014-Oct-24 16:33N 37°45' E 023°40'1211.7
2014-Oct-24 15:34N 37°57' E 023°38'0 0.0
2014-Oct-24 14:33N 37°57' E 023°38'0 0.0
2014-Oct-24 13:34N 37°57' E 023°38'0 0.0
2014-Oct-24 12:34N 37°57' E 023°38'0 0.0
2014-Oct-24 11:33N 37°57' E 023°38'0 0.0
2014-Oct-24 07:32N 37°57' E 023°38'0 0.0
2014-Oct-24 06:33N 37°57' E 023°38'0 0.0
2014-Oct-24 05:34N 37°57' E 023°38'0 0.0
2014-Oct-24 04:34N 37°57' E 023°38'0 0.0
2014-Oct-24 03:33N 37°57' E 023°38'0 0.2
2014-Oct-24 02:33N 37°57' E 023°38'1313.5
2014-Oct-24 01:33N 37°44' E 023°44'5418.2
2014-Oct-23 22:34N 36°55' E 024°15'1515.3
2014-Oct-23 21:33N 36°43' E 024°27'6 5.6
2014-Oct-23 20:33N 36°45' E 024°33'1717.1
2014-Oct-23 19:33N 36°40' E 024°54'1615.9
2014-Oct-23 18:33N 36°31' E 025°10'1515.1
2014-Oct-23 17:34N 36°23' E 025°26'5 4.5
2014-Oct-23 16:33N 36°20' E 025°22'1616.2
2014-Oct-23 15:33N 36°20' E 025°42'9 8.7
2014-Oct-23 14:33N 36°13' E 025°48'1716.8
2014-Oct-23 13:33N 35°58' E 025°57'10 0.3
2014-Oct-22 06:33N 36°07' E 025°59'1716.8
2014-Oct-22 05:33N 36°20' E 025°46'1414.4
2014-Oct-22 04:34N 36°19' E 025°28'5 4.7
2014-Oct-22 03:33N 36°23' E 025°26'6 6.5
2014-Oct-22 02:33N 36°23' E 025°18'1817.9
2014-Oct-22 01:33N 36°32' E 024°58'1717.5
2014-Oct-22 00:34N 36°41' E 024°40'1211.6
2014-Oct-21 23:30N 36°43' E 024°25'7 7.2
2014-Oct-21 22:33N 36°49' E 024°20'1717.5
2014-Oct-21 21:33N 37°04' E 024°09'2317.8
2014-Oct-21 20:14N 37°24' E 023°54'1217.4
2014-Oct-21 19:33N 37°35' E 023°47'1717.5
2014-Oct-21 18:34N 37°50' E 023°37'7 6.7
2014-Oct-21 17:33N 37°57' E 023°38'0 0.0
2014-Oct-21 16:33N 37°57' E 023°38'0 0.0
2014-Oct-21 15:34N 37°57' E 023°38'0 0.0
2014-Oct-21 14:33N 37°57' E 023°38'0 0.0
2014-Oct-21 13:33N 37°57' E 023°38'0 0.0
2014-Oct-21 12:33N 37°57' E 023°38'0 0.0
2014-Oct-21 11:33N 37°57' E 023°38'0 0.0
2014-Oct-21 10:33N 37°57' E 023°38'  
Track history (hours):
 
Tides and Currents Weather Stations Pressure Air Temp Water Temp Dewpoint Dewpoint Depression Visibility Wind Speed Wind Dir Waves Ship Positions

Prevelis

Last reported at 2014-Oct-31 09:34 UTC. Time now 2014-Oct-31 10:33 UTC.
Position N 37°57' E 023°38'.

Length 143 m; draft 5.5 m.

Type: Passenger vessel. MMSI: 239297000.

Date/timePositionNaut miles runAvg speedWind from/ knotsBaromVisibWave heightAir tempDewpointWater temp
2014-Oct-31 09:34N 37°57' E 023°38'0 0.0
2014-Oct-31 08:33N 37°57' E 023°38'0 0.0
2014-Oct-31 07:33N 37°57' E 023°38'0 0.0
2014-Oct-31 06:33N 37°57' E 023°38'0 0.0
2014-Oct-31 05:34N 37°57' E 023°38'0 0.0
2014-Oct-31 04:34N 37°57' E 023°38'8 7.7
2014-Oct-31 03:33N 37°49' E 023°41'5317.4
2014-Oct-31 00:32N 37°02' E 024°09'1817.9
2014-Oct-30 23:33N 36°47' E 024°22'3 2.6
2014-Oct-30 22:34N 36°45' E 024°24'1615.6
2014-Oct-30 21:33N 36°41' E 024°42'1817.8
2014-Oct-30 20:34N 36°32' E 025°01'1817.7
2014-Oct-30 19:34N 36°22' E 025°20'1 1.2
2014-Oct-30 18:34N 36°22' E 025°21'1514.6
2014-Oct-30 17:33N 36°20' E 025°40'1212.1
2014-Oct-30 16:33N 36°13' E 025°52'1817.7
2014-Oct-30 15:33N 36°01' E 026°08'  
2014-Oct-28 07:31N 36°05' E 026°03'1818.2
2014-Oct-28 06:33N 36°18' E 025°47'1111.4
2014-Oct-28 05:34N 36°20' E 025°33'7 7.1
2014-Oct-28 04:33N 36°23' E 025°26'8 8.3
2014-Oct-28 03:34N 36°23' E 025°15'1817.8
2014-Oct-28 02:33N 36°33' E 024°56'1818.0
2014-Oct-28 01:33N 36°43' E 024°38'9 9.1
2014-Oct-28 00:33N 36°43' E 024°26'6 5.6
2014-Oct-27 23:33N 36°47' E 024°22'1818.1
2014-Oct-27 22:33N 37°03' E 024°11'3818.1
2014-Oct-27 20:28N 37°35' E 023°46'1617.9
2014-Oct-27 19:34N 37°50' E 023°37'7 6.9
2014-Oct-27 18:33N 37°57' E 023°38'0 0.0
2014-Oct-27 17:33N 37°57' E 023°38'0 0.0
2014-Oct-27 16:33N 37°57' E 023°38'0 0.0
2014-Oct-27 15:33N 37°57' E 023°38'0 0.0
2014-Oct-27 14:33N 37°57' E 023°38'0 0.0
2014-Oct-27 13:33N 37°57' E 023°38'0 0.0
2014-Oct-27 12:33N 37°57' E 023°38'0 0.0
2014-Oct-27 11:33N 37°57' E 023°38'0 0.0
2014-Oct-27 10:33N 37°57' E 023°38'0 0.0
2014-Oct-27 09:33N 37°57' E 023°38'0 0.0
2014-Oct-27 08:33N 37°57' E 023°38'3 3.0
2014-Oct-27 07:34N 37°54' E 023°38'5617.3
2014-Oct-27 04:19N 37°04' E 024°10'1316.8
2014-Oct-27 03:33N 36°53' E 024°18'1212.0
2014-Oct-27 02:33N 36°43' E 024°27'7 6.7
2014-Oct-27 01:33N 36°44' E 024°35'1717.4
2014-Oct-27 00:33N 36°35' E 024°53'1817.6
2014-Oct-26 23:33N 36°26' E 025°12'1111.3
2014-Oct-26 22:33N 36°23' E 025°26'4 4.4
2014-Oct-26 21:33N 36°19' E 025°24'1717.0
2014-Oct-26 20:33N 36°20' E 025°45'1010.0
2014-Oct-26 19:33N 36°12' E 025°39'1716.9
2014-Oct-26 18:33N 35°56' E 025°31'1717.2
2014-Oct-26 17:33N 35°40' E 025°23'1817.8
2014-Oct-26 16:32N 35°24' E 025°14'11 0.3
2014-Oct-25 09:18N 35°34' E 025°15'1316.7
2014-Oct-25 08:31N 35°45' E 025°24'1616.4
2014-Oct-25 07:33N 35°59' E 025°34'1716.7
2014-Oct-25 06:33N 36°14' E 025°42'6 6.4
2014-Oct-25 05:33N 36°20' E 025°41'1717.2
2014-Oct-25 04:34N 36°21' E 025°20'5 5.2
2014-Oct-25 03:33N 36°23' E 025°26'0 0.0
2014-Oct-25 02:33N 36°23' E 025°26'0 0.5
2014-Oct-25 01:34N 36°23' E 025°25'1716.5
2014-Oct-25 00:34N 36°27' E 025°05'1817.6
2014-Oct-24 23:33N 36°37' E 024°47'1817.5
2014-Oct-24 22:33N 36°47' E 024°29'4 4.2
2014-Oct-24 21:33N 36°43' E 024°27'1312.7
2014-Oct-24 20:34N 36°55' E 024°19'1615.9
2014-Oct-24 19:33N 37°10' E 024°18'1514.4
2014-Oct-24 18:30N 37°24' E 024°08'2116.9
2014-Oct-24 17:16N 37°36' E 023°47'1115.7
2014-Oct-24 16:33N 37°45' E 023°40'1211.7
2014-Oct-24 15:34N 37°57' E 023°38'0 0.0
2014-Oct-24 14:33N 37°57' E 023°38'0 0.0
2014-Oct-24 13:34N 37°57' E 023°38'0 0.0
2014-Oct-24 12:34N 37°57' E 023°38'0 0.0
2014-Oct-24 11:33N 37°57' E 023°38'0 0.0
2014-Oct-24 07:32N 37°57' E 023°38'0 0.0
2014-Oct-24 06:33N 37°57' E 023°38'0 0.0
2014-Oct-24 05:34N 37°57' E 023°38'0 0.0
2014-Oct-24 04:34N 37°57' E 023°38'0 0.0
2014-Oct-24 03:33N 37°57' E 023°38'0 0.2
2014-Oct-24 02:33N 37°57' E 023°38'1313.5
2014-Oct-24 01:33N 37°44' E 023°44'5418.2
2014-Oct-23 22:34N 36°55' E 024°15'1515.3
2014-Oct-23 21:33N 36°43' E 024°27'6 5.6
2014-Oct-23 20:33N 36°45' E 024°33'1717.1
2014-Oct-23 19:33N 36°40' E 024°54'1615.9
2014-Oct-23 18:33N 36°31' E 025°10'1515.1
2014-Oct-23 17:34N 36°23' E 025°26'5 4.5
2014-Oct-23 16:33N 36°20' E 025°22'1616.2
2014-Oct-23 15:33N 36°20' E 025°42'9 8.7
2014-Oct-23 14:33N 36°13' E 025°48'1716.8
2014-Oct-23 13:33N 35°58' E 025°57'10 0.3
2014-Oct-22 06:33N 36°07' E 025°59'1716.8
2014-Oct-22 05:33N 36°20' E 025°46'1414.4
2014-Oct-22 04:34N 36°19' E 025°28'5 4.7
2014-Oct-22 03:33N 36°23' E 025°26'6 6.5
2014-Oct-22 02:33N 36°23' E 025°18'1817.9
2014-Oct-22 01:33N 36°32' E 024°58'1717.5
2014-Oct-22 00:34N 36°41' E 024°40'1211.6
2014-Oct-21 23:30N 36°43' E 024°25'7 7.2
2014-Oct-21 22:33N 36°49' E 024°20'1717.5
2014-Oct-21 21:33N 37°04' E 024°09'2317.8
2014-Oct-21 20:14N 37°24' E 023°54'1217.4
2014-Oct-21 19:33N 37°35' E 023°47'1717.5
2014-Oct-21 18:34N 37°50' E 023°37'7 6.7
2014-Oct-21 17:33N 37°57' E 023°38'0 0.0
2014-Oct-21 16:33N 37°57' E 023°38'0 0.0
2014-Oct-21 15:34N 37°57' E 023°38'0 0.0
2014-Oct-21 14:33N 37°57' E 023°38'0 0.0
2014-Oct-21 13:33N 37°57' E 023°38'0 0.0
2014-Oct-21 12:33N 37°57' E 023°38'0 0.0
2014-Oct-21 11:33N 37°57' E 023°38'0 0.0
2014-Oct-21 10:33N 37°57' E 023°38'  

Dump ship's entire track history